createdAt,value
2018-08-23T00:00:08.350Z,22.50
2018-08-23T00:02:35.807Z,22.50
2018-08-23T00:05:03.205Z,22.41
2018-08-23T00:07:30.701Z,22.31
2018-08-23T00:09:58.124Z,22.24
2018-08-23T00:12:25.537Z,22.26
2018-08-23T00:14:53.018Z,22.29
2018-08-23T00:17:20.455Z,22.31
2018-08-23T00:19:47.988Z,22.38
2018-08-23T00:22:15.512Z,22.42
2018-08-23T00:24:43.556Z,22.35
2018-08-23T00:27:11.100Z,22.30
2018-08-23T00:29:38.523Z,22.36
2018-08-23T00:32:06.048Z,22.32
2018-08-23T00:34:33.493Z,22.40
2018-08-23T00:37:00.893Z,22.41
2018-08-23T00:39:28.299Z,22.31
2018-08-23T00:41:55.722Z,22.21
2018-08-23T00:44:23.208Z,22.19
2018-08-23T00:46:50.812Z,22.05
2018-08-23T00:49:18.218Z,22.14
2018-08-23T00:51:46.096Z,22.23
2018-08-23T00:54:13.651Z,22.19
2018-08-23T00:56:41.839Z,22.09
2018-08-23T00:59:09.303Z,22.04
2018-08-23T01:01:36.772Z,22.08
2018-08-23T01:04:04.392Z,22.22
2018-08-23T01:06:31.811Z,22.35
2018-08-23T01:08:59.228Z,22.40
2018-08-23T01:11:26.678Z,22.44
2018-08-23T01:13:54.150Z,22.36
2018-08-23T01:16:21.641Z,22.33
2018-08-23T01:18:49.107Z,22.29
2018-08-23T01:21:16.537Z,22.16
2018-08-23T01:23:44.001Z,21.96
2018-08-23T01:26:11.680Z,21.70
2018-08-23T01:28:39.141Z,21.62
2018-08-23T01:31:07.382Z,21.56
2018-08-23T01:33:34.838Z,21.42
2018-08-23T01:36:02.300Z,21.34
2018-08-23T01:38:29.834Z,21.39
2018-08-23T01:40:57.270Z,21.58
2018-08-23T01:43:24.716Z,21.68
2018-08-23T01:45:52.150Z,21.75
2018-08-23T01:48:19.544Z,21.80
2018-08-23T01:50:47.025Z,21.85
2018-08-23T01:53:15.723Z,21.94
2018-08-23T01:55:43.168Z,22.00
2018-08-23T01:58:10.588Z,22.01
2018-08-23T02:00:38.047Z,22.00
2018-08-23T02:03:05.592Z,21.87
2018-08-23T02:05:33.102Z,21.76
2018-08-23T02:08:00.881Z,21.61
2018-08-23T02:10:28.320Z,21.49
2018-08-23T02:12:55.734Z,21.38
2018-08-23T02:15:23.190Z,21.29
2018-08-23T02:17:50.616Z,21.26
2018-08-23T02:20:18.026Z,21.29
2018-08-23T02:22:45.441Z,21.37
2018-08-23T02:25:12.877Z,21.27
2018-08-23T02:27:40.358Z,21.35
2018-08-23T02:30:07.997Z,21.49
2018-08-23T02:32:35.433Z,21.42
2018-08-23T02:35:02.856Z,21.37
2018-08-23T02:37:30.344Z,21.50
2018-08-23T02:39:57.793Z,21.55
2018-08-23T02:42:25.198Z,21.57
2018-08-23T02:44:52.648Z,21.43
2018-08-23T02:47:20.093Z,21.54
2018-08-23T02:49:47.537Z,21.62
2018-08-23T02:52:14.942Z,21.66
2018-08-23T02:54:42.391Z,21.73
2018-08-23T02:57:09.784Z,21.79
2018-08-23T02:59:37.245Z,21.78
2018-08-23T03:02:04.823Z,21.72
2018-08-23T03:04:32.260Z,21.71
2018-08-23T03:06:59.712Z,21.67
2018-08-23T03:09:27.166Z,21.62
2018-08-23T03:11:54.687Z,21.53
2018-08-23T03:14:22.168Z,21.48
2018-08-23T03:16:49.590Z,21.38
2018-08-23T03:19:17.025Z,21.27
2018-08-23T03:21:44.455Z,21.31
2018-08-23T03:24:11.902Z,21.40
2018-08-23T03:26:39.567Z,21.42
2018-08-23T03:29:06.981Z,21.41
2018-08-23T03:31:34.372Z,21.47
2018-08-23T03:34:01.778Z,21.39
2018-08-23T03:36:29.249Z,21.44
2018-08-23T03:38:56.776Z,21.47
2018-08-23T03:41:24.241Z,21.47
2018-08-23T03:43:51.637Z,21.48
2018-08-23T03:46:19.026Z,21.50
2018-08-23T03:48:46.463Z,21.49
2018-08-23T03:51:13.882Z,21.41
2018-08-23T03:53:41.398Z,21.37
2018-08-23T03:56:09.113Z,21.27
2018-08-23T03:58:36.578Z,21.24
2018-08-23T04:01:04.189Z,21.32
2018-08-23T04:03:31.617Z,21.36
2018-08-23T04:05:59.074Z,21.38
2018-08-23T04:08:26.512Z,21.35
2018-08-23T04:10:54.060Z,21.37
2018-08-23T04:13:21.456Z,21.29
2018-08-23T04:15:48.931Z,21.09
2018-08-23T04:18:16.334Z,21.12
2018-08-23T04:20:43.773Z,21.11
2018-08-23T04:23:11.262Z,20.83
2018-08-23T04:25:38.810Z,20.77
2018-08-23T04:28:06.264Z,20.75
2018-08-23T04:30:33.679Z,20.69
2018-08-23T04:33:01.255Z,20.72
2018-08-23T04:35:28.695Z,20.70
2018-08-23T04:37:56.232Z,20.80
2018-08-23T04:40:23.675Z,20.90
2018-08-23T04:42:51.122Z,20.96
2018-08-23T04:45:18.593Z,21.04
2018-08-23T04:47:46.212Z,21.08
2018-08-23T04:50:13.635Z,21.10
2018-08-23T04:52:41.073Z,21.07
2018-08-23T04:55:08.490Z,21.11
2018-08-23T04:57:35.932Z,21.17
2018-08-23T05:00:03.389Z,21.21
2018-08-23T05:02:30.919Z,21.22
2018-08-23T05:04:58.375Z,21.27
2018-08-23T05:07:25.765Z,21.36
2018-08-23T05:09:53.200Z,21.39
2018-08-23T05:12:20.798Z,21.37
2018-08-23T05:14:48.271Z,21.41
2018-08-23T05:17:15.722Z,21.36
2018-08-23T05:19:43.170Z,21.36
2018-08-23T05:22:10.672Z,21.37
2018-08-23T05:24:38.090Z,21.42
2018-08-23T05:27:05.651Z,21.47
2018-08-23T05:29:33.212Z,21.43
2018-08-23T05:32:01.087Z,21.57
2018-08-23T05:34:28.484Z,21.71
2018-08-23T05:36:55.892Z,21.82
2018-08-23T05:39:23.391Z,21.85
2018-08-23T05:41:50.937Z,21.83
2018-08-23T05:44:18.429Z,21.80
2018-08-23T05:46:45.947Z,21.77
2018-08-23T05:49:13.482Z,21.76
2018-08-23T05:51:40.955Z,21.61
2018-08-23T05:54:08.996Z,21.54
2018-08-23T05:56:36.438Z,21.47
2018-08-23T05:59:03.824Z,21.54
2018-08-23T06:01:32.260Z,21.52
2018-08-23T06:03:59.706Z,21.68
2018-08-23T06:06:27.160Z,21.82
2018-08-23T06:08:54.656Z,22.01
2018-08-23T06:11:22.136Z,22.16
2018-08-23T06:13:49.537Z,22.34
2018-08-23T06:16:17.783Z,22.60
2018-08-23T06:18:45.336Z,22.83
2018-08-23T06:21:12.754Z,22.92
2018-08-23T06:23:40.250Z,22.93
2018-08-23T06:26:07.729Z,22.95
2018-08-23T06:28:36.099Z,22.85
2018-08-23T06:31:03.531Z,22.80
2018-08-23T06:33:31.102Z,22.88
2018-08-23T06:35:58.447Z,23.14
2018-08-23T06:38:25.927Z,23.26
2018-08-23T06:40:53.384Z,23.54
2018-08-23T06:43:20.790Z,24.51
2018-08-23T06:45:49.202Z,24.92
2018-08-23T06:48:16.703Z,24.82
2018-08-23T06:50:44.129Z,24.23
2018-08-23T06:53:11.583Z,24.03
2018-08-23T06:55:39.015Z,24.02
2018-08-23T06:58:06.529Z,24.31
2018-08-23T07:00:34.719Z,24.19
2018-08-23T07:03:02.367Z,24.07
2018-08-23T07:05:29.790Z,24.02
2018-08-23T07:07:57.252Z,24.00
2018-08-23T07:10:24.695Z,23.95
2018-08-23T07:12:52.154Z,24.00
2018-08-23T07:15:19.560Z,24.13
2018-08-23T07:17:47.154Z,24.21
2018-08-23T07:20:14.486Z,24.02
2018-08-23T07:22:41.912Z,23.77
2018-08-23T07:25:09.371Z,23.93
2018-08-23T07:27:36.779Z,24.13
2018-08-23T07:30:04.593Z,24.13
2018-08-23T07:32:32.097Z,24.59
2018-08-23T07:34:59.658Z,25.87
2018-08-23T07:37:27.061Z,26.97
2018-08-23T07:39:54.634Z,27.83
2018-08-23T07:42:22.904Z,28.73
2018-08-23T07:44:50.331Z,29.37
2018-08-23T07:47:17.798Z,29.76
2018-08-23T07:49:45.810Z,29.76
2018-08-23T07:52:13.239Z,29.49
2018-08-23T07:54:40.753Z,29.73
2018-08-23T07:57:08.196Z,30.20
2018-08-23T07:59:35.620Z,30.28
2018-08-23T08:02:03.058Z,30.62
2018-08-23T08:04:30.042Z,31.12
2018-08-23T08:06:57.074Z,31.44
2018-08-23T08:09:24.162Z,31.59
2018-08-23T08:11:51.162Z,31.70
2018-08-23T08:14:18.112Z,31.90
2018-08-23T08:16:45.108Z,32.09
2018-08-23T08:19:12.571Z,32.18
2018-08-23T08:21:39.586Z,32.38
2018-08-23T08:24:06.510Z,32.48
2018-08-23T08:26:33.503Z,32.40
2018-08-23T08:29:01.103Z,31.94
2018-08-23T08:31:28.583Z,32.01
2018-08-23T08:33:56.189Z,32.53
2018-08-23T08:36:23.691Z,32.91
2018-08-23T08:38:51.163Z,32.73
2018-08-23T08:41:19.447Z,32.06
2018-08-23T08:43:46.969Z,32.28
2018-08-23T08:46:14.526Z,32.33
2018-08-23T08:48:41.505Z,32.37
2018-08-23T08:51:10.489Z,32.64
2018-08-23T08:53:37.918Z,32.49
2018-08-23T08:56:05.062Z,32.39
2018-08-23T08:58:32.108Z,32.42
2018-08-23T09:00:59.528Z,32.41
2018-08-23T09:03:27.761Z,31.80
2018-08-23T09:05:54.724Z,31.65
2018-08-23T09:08:21.657Z,31.41
2018-08-23T09:10:49.221Z,31.08
2018-08-23T09:13:16.666Z,30.59
2018-08-23T09:15:44.137Z,30.54
2018-08-23T09:18:11.653Z,30.76
2018-08-23T09:20:39.195Z,30.79
2018-08-23T09:23:06.158Z,30.99
2018-08-23T09:25:33.416Z,30.64
2018-08-23T09:28:00.815Z,30.71
2018-08-23T09:30:28.426Z,31.15
2018-08-23T09:32:55.862Z,31.25
2018-08-23T09:35:23.319Z,31.28
2018-08-23T09:37:50.745Z,31.12
2018-08-23T09:40:18.175Z,31.19
2018-08-23T09:42:45.733Z,31.37
2018-08-23T09:45:13.366Z,31.23
2018-08-23T09:47:40.848Z,30.94
2018-08-23T09:50:07.913Z,31.18
2018-08-23T09:52:35.644Z,30.86
2018-08-23T09:55:03.604Z,30.85
2018-08-23T09:57:31.463Z,31.35
2018-08-23T09:59:58.908Z,31.73
2018-08-23T10:02:32.234Z,31.98
2018-08-23T10:04:59.683Z,31.85
2018-08-23T10:07:27.213Z,31.98
2018-08-23T10:09:54.677Z,32.08
2018-08-23T10:15:20.595Z,31.91
2018-08-23T10:20:58.604Z,32.14
2018-08-23T10:23:26.089Z,32.16
2018-08-23T10:25:53.494Z,32.05
2018-08-23T10:28:20.952Z,32.10
2018-08-23T10:30:48.375Z,32.27
2018-08-23T10:33:17.210Z,32.28
2018-08-23T10:35:44.201Z,32.15
2018-08-23T10:38:11.705Z,32.35
2018-08-23T10:40:39.207Z,32.46
2018-08-23T10:43:06.674Z,32.76
2018-08-23T10:45:34.112Z,32.76
2018-08-23T10:48:01.066Z,32.77
2018-08-23T10:50:28.045Z,33.03
2018-08-23T10:52:55.498Z,33.21
2018-08-23T10:55:22.969Z,33.36
2018-08-23T10:57:49.900Z,33.69
2018-08-23T11:00:16.870Z,33.94
2018-08-23T11:02:43.899Z,34.13
2018-08-23T11:05:10.865Z,34.10
2018-08-23T11:07:37.842Z,34.26
2018-08-23T11:10:05.280Z,34.48
2018-08-23T11:12:32.830Z,34.58
2018-08-23T11:15:00.284Z,34.32
2018-08-23T11:20:22.706Z,34.44
2018-08-23T11:22:50.298Z,34.30
2018-08-23T11:25:17.710Z,34.23
2018-08-23T11:27:45.162Z,34.06
2018-08-23T11:30:12.612Z,33.80
2018-08-23T11:32:40.468Z,33.86
2018-08-23T11:35:07.894Z,34.26
2018-08-23T11:37:35.277Z,34.57
2018-08-23T11:40:02.774Z,34.72
2018-08-23T11:42:31.124Z,34.69
2018-08-23T11:44:58.626Z,34.92
2018-08-23T11:47:26.618Z,35.13
2018-08-23T11:49:54.337Z,35.06
2018-08-23T11:52:21.819Z,34.99
2018-08-23T11:54:49.311Z,34.85
2018-08-23T11:57:16.764Z,34.86
2018-08-23T11:59:43.781Z,35.13
2018-08-23T12:02:11.270Z,35.15
2018-08-23T12:04:38.291Z,34.85
2018-08-23T12:07:06.611Z,34.48
2018-08-23T12:09:33.584Z,34.84
2018-08-23T12:12:01.014Z,35.11
2018-08-23T12:14:28.637Z,35.39
2018-08-23T12:16:56.191Z,35.23
2018-08-23T12:19:23.923Z,35.51
2018-08-23T12:21:51.437Z,35.29
2018-08-23T12:24:19.003Z,34.94
2018-08-23T12:26:46.460Z,35.24
2018-08-23T12:29:14.026Z,35.53
2018-08-23T12:31:41.560Z,35.42
2018-08-23T12:34:09.100Z,35.46
2018-08-23T12:36:36.542Z,35.42
2018-08-23T12:42:18.856Z,35.73
2018-08-23T12:44:46.324Z,35.08
2018-08-23T12:47:13.749Z,35.15
2018-08-23T12:49:41.358Z,35.68
2018-08-23T12:52:08.860Z,35.57
2018-08-23T12:54:36.405Z,35.64
2018-08-23T12:57:03.858Z,35.67
2018-08-23T12:59:30.822Z,35.25
2018-08-23T13:01:58.396Z,35.03
2018-08-23T13:04:25.573Z,35.21
2018-08-23T13:06:52.630Z,35.16
2018-08-23T13:09:19.642Z,35.00
2018-08-23T13:11:46.636Z,35.20
2018-08-23T13:14:13.712Z,35.11
2018-08-23T13:16:40.839Z,35.31
2018-08-23T13:19:07.845Z,35.32
2018-08-23T13:21:34.797Z,35.43
2018-08-23T13:24:01.886Z,35.35
2018-08-23T13:26:28.881Z,35.29
2018-08-23T13:28:55.889Z,35.61
2018-08-23T13:31:22.897Z,35.81
2018-08-23T13:33:49.910Z,35.50
2018-08-23T13:36:17.100Z,35.42
2018-08-23T13:38:43.991Z,35.40
2018-08-23T13:41:11.965Z,35.57
2018-08-23T13:43:39.119Z,35.87
2018-08-23T13:46:06.059Z,36.13
2018-08-23T13:48:33.713Z,35.99
2018-08-23T13:51:00.649Z,35.75
2018-08-23T13:53:27.617Z,35.42
2018-08-23T13:55:55.074Z,35.59
2018-08-23T13:58:22.087Z,35.75
2018-08-23T14:00:49.263Z,35.68
2018-08-23T14:03:16.268Z,35.52
2018-08-23T14:05:43.233Z,35.51
2018-08-23T14:08:10.930Z,35.64
2018-08-23T14:10:38.059Z,35.92
2018-08-23T14:13:05.021Z,35.99
2018-08-23T14:15:32.030Z,35.36
2018-08-23T14:17:59.011Z,34.61
2018-08-23T14:20:25.997Z,34.47
2018-08-23T14:22:52.951Z,34.81
2018-08-23T14:25:19.963Z,34.93
2018-08-23T14:27:46.943Z,34.97
2018-08-23T14:30:13.989Z,35.03
2018-08-23T14:32:41.006Z,35.23
2018-08-23T14:35:08.025Z,35.46
2018-08-23T14:37:34.975Z,35.74
2018-08-23T14:40:02.021Z,35.78
2018-08-23T14:42:29.112Z,35.44
2018-08-23T14:44:56.172Z,35.38
2018-08-23T14:47:28.766Z,35.27
2018-08-23T14:49:57.260Z,34.75
2018-08-23T14:52:24.217Z,35.00
2018-08-23T14:54:51.212Z,34.94
2018-08-23T14:57:32.762Z,34.55
2018-08-23T14:59:59.823Z,34.82
2018-08-23T15:02:26.899Z,34.92
2018-08-23T15:04:53.861Z,34.83
2018-08-23T15:07:20.889Z,34.57
2018-08-23T15:09:47.920Z,34.62
2018-08-23T15:12:14.879Z,34.85
2018-08-23T15:14:41.839Z,34.82
2018-08-23T15:17:09.821Z,34.99
2018-08-23T15:19:37.402Z,34.79
2018-08-23T15:22:04.445Z,34.82
2018-08-23T15:24:31.460Z,34.94
2018-08-23T15:26:58.514Z,34.63
2018-08-23T15:29:25.938Z,34.67
2018-08-23T15:31:52.883Z,34.77
2018-08-23T15:34:19.879Z,34.66
2018-08-23T15:36:46.836Z,34.75
2018-08-23T15:39:13.852Z,34.79
2018-08-23T15:41:41.118Z,34.91
2018-08-23T15:44:08.092Z,34.97
2018-08-23T15:46:36.263Z,34.77
2018-08-23T15:49:03.186Z,34.65
2018-08-23T15:51:30.158Z,34.82
2018-08-23T15:53:57.171Z,34.92
2018-08-23T15:56:24.162Z,34.60
2018-08-23T15:58:51.197Z,34.60
2018-08-23T16:01:18.167Z,34.52
2018-08-23T16:03:45.124Z,34.57
2018-08-23T16:06:12.095Z,34.69
2018-08-23T16:08:39.043Z,34.53
2018-08-23T16:11:06.065Z,34.56
2018-08-23T16:13:33.838Z,34.47
2018-08-23T16:16:00.967Z,34.21
2018-08-23T16:21:27.513Z,34.19
2018-08-23T16:23:54.528Z,34.28
2018-08-23T16:26:22.580Z,34.24
2018-08-23T16:28:49.562Z,34.17
2018-08-23T16:31:16.590Z,33.99
2018-08-23T16:33:43.694Z,33.94
2018-08-23T16:36:11.702Z,33.53
2018-08-23T16:38:38.817Z,33.24
2018-08-23T16:41:05.795Z,33.02
2018-08-23T16:43:32.790Z,32.95
2018-08-23T16:46:00.265Z,32.84
2018-08-23T16:48:27.683Z,32.58
2018-08-23T16:50:55.373Z,32.42
2018-08-23T16:53:23.025Z,32.40
2018-08-23T16:55:50.690Z,32.29
2018-08-23T16:58:18.131Z,32.16
2018-08-23T17:00:45.562Z,32.04
2018-08-23T17:03:13.065Z,31.90
2018-08-23T17:05:40.532Z,31.79
2018-08-23T17:08:08.069Z,31.71
2018-08-23T17:10:35.520Z,31.66
2018-08-23T17:13:03.107Z,31.64
2018-08-23T17:15:30.704Z,31.64
2018-08-23T17:17:58.263Z,31.61
2018-08-23T17:20:25.742Z,31.56
2018-08-23T17:22:54.184Z,31.45
2018-08-23T17:25:21.762Z,31.37
2018-08-23T17:27:49.153Z,31.29
2018-08-23T17:30:16.622Z,31.20
2018-08-23T17:32:44.101Z,31.13
2018-08-23T17:35:11.547Z,31.13
2018-08-23T17:37:38.979Z,31.09
2018-08-23T17:40:06.435Z,30.91
2018-08-23T17:42:33.898Z,30.86
2018-08-23T17:45:00.919Z,30.85
2018-08-23T17:47:27.945Z,30.80
2018-08-23T17:49:55.407Z,30.72
2018-08-23T17:52:22.859Z,30.59
2018-08-23T17:54:49.876Z,30.60
2018-08-23T17:57:16.931Z,30.55
2018-08-23T17:59:44.746Z,30.53
2018-08-23T18:02:11.681Z,30.48
2018-08-23T18:04:39.340Z,30.43
2018-08-23T18:07:06.824Z,30.36
2018-08-23T18:09:34.323Z,30.23
2018-08-23T18:12:02.735Z,30.17
2018-08-23T18:14:30.188Z,30.14
2018-08-23T18:16:58.473Z,30.04
2018-08-23T18:19:26.813Z,29.96
2018-08-23T18:21:54.250Z,29.86
2018-08-23T18:24:21.777Z,29.78
2018-08-23T18:26:49.262Z,29.71
2018-08-23T18:29:16.731Z,29.66
2018-08-23T18:31:44.192Z,29.66
2018-08-23T18:34:11.684Z,29.67
2018-08-23T18:36:39.177Z,29.66
2018-08-23T18:39:06.677Z,29.58
2018-08-23T18:41:34.142Z,29.50
2018-08-23T18:44:01.584Z,29.46
2018-08-23T18:46:29.199Z,29.42
2018-08-23T18:48:56.684Z,29.39
2018-08-23T18:51:25.524Z,29.25
2018-08-23T18:53:52.933Z,29.14
2018-08-23T18:56:20.450Z,29.10
2018-08-23T18:58:48.037Z,28.93
2018-08-23T19:01:15.668Z,28.82
2018-08-23T19:03:43.168Z,28.74
2018-08-23T19:06:11.080Z,28.65
2018-08-23T19:08:38.661Z,28.58
2018-08-23T19:11:06.180Z,28.45
2018-08-23T19:13:33.630Z,28.22
2018-08-23T19:16:01.086Z,28.12
2018-08-23T19:18:28.738Z,28.03
2018-08-23T19:20:56.307Z,27.96
2018-08-23T19:23:23.791Z,27.92
2018-08-23T19:25:51.779Z,27.90
2018-08-23T19:28:19.196Z,27.87
2018-08-23T19:30:46.772Z,27.91
2018-08-23T19:33:14.881Z,27.93
2018-08-23T19:35:42.379Z,27.81
2018-08-23T19:38:09.835Z,27.75
2018-08-23T19:40:37.444Z,27.81
2018-08-23T19:43:04.845Z,27.90
2018-08-23T19:45:32.304Z,27.92
2018-08-23T19:47:59.800Z,27.88
2018-08-23T19:50:27.323Z,27.90
2018-08-23T19:52:54.773Z,27.78
2018-08-23T19:55:22.199Z,27.70
2018-08-23T19:57:50.042Z,27.74
2018-08-23T20:00:17.589Z,27.76
2018-08-23T20:02:45.167Z,27.79
2018-08-23T20:05:12.627Z,27.78
2018-08-23T20:07:40.124Z,27.81
2018-08-23T20:10:07.538Z,27.85
2018-08-23T20:12:35.072Z,27.77
2018-08-23T20:15:02.408Z,27.66
2018-08-23T20:17:29.847Z,27.64
2018-08-23T20:19:57.252Z,27.68
2018-08-23T20:22:24.731Z,27.69
2018-08-23T20:24:52.166Z,27.65
2018-08-23T20:27:19.602Z,27.57
2018-08-23T20:29:47.165Z,27.42
2018-08-23T20:32:14.658Z,27.29
2018-08-23T20:34:42.787Z,27.24
2018-08-23T20:37:10.245Z,27.18
2018-08-23T20:39:38.066Z,27.16
2018-08-23T20:42:05.498Z,27.16
2018-08-23T20:44:32.994Z,27.17
2018-08-23T20:47:00.637Z,27.16
2018-08-23T20:49:28.084Z,27.15
2018-08-23T20:51:55.538Z,27.10
2018-08-23T20:54:22.985Z,27.16
2018-08-23T20:56:50.787Z,27.07
2018-08-23T20:59:18.228Z,27.04
2018-08-23T21:01:45.642Z,27.05
2018-08-23T21:04:13.272Z,27.01
2018-08-23T21:06:40.626Z,27.01
2018-08-23T21:09:08.300Z,27.15
2018-08-23T21:11:35.709Z,27.19
2018-08-23T21:14:03.148Z,27.22
2018-08-23T21:16:30.635Z,27.24
2018-08-23T21:18:58.249Z,27.23
2018-08-23T21:21:25.826Z,27.26
2018-08-23T21:23:53.351Z,27.31
2018-08-23T21:26:20.746Z,27.35
2018-08-23T21:28:48.200Z,27.34
2018-08-23T21:31:15.645Z,27.35
2018-08-23T21:33:43.102Z,27.33
2018-08-23T21:36:10.520Z,27.27
2018-08-23T21:38:38.002Z,27.18
2018-08-23T21:41:05.669Z,27.19
2018-08-23T21:43:33.111Z,27.20
2018-08-23T21:46:00.635Z,27.20
2018-08-23T21:48:28.093Z,27.22
2018-08-23T21:50:55.511Z,27.18
2018-08-23T21:53:22.926Z,27.16
2018-08-23T21:55:50.367Z,27.13
2018-08-23T21:58:17.846Z,27.13
2018-08-23T22:00:45.326Z,27.13
2018-08-23T22:03:13.119Z,27.15
2018-08-23T22:05:40.600Z,27.17
2018-08-23T22:08:08.162Z,27.08
2018-08-23T22:10:35.695Z,27.08
2018-08-23T22:13:03.097Z,27.09
2018-08-23T22:15:30.566Z,27.09
2018-08-23T22:17:57.979Z,27.05
2018-08-23T22:20:25.552Z,26.96
2018-08-23T22:22:52.997Z,26.90
2018-08-23T22:25:20.475Z,26.88
2018-08-23T22:27:47.966Z,26.81
2018-08-23T22:30:15.455Z,26.76
2018-08-23T22:32:42.873Z,26.65
2018-08-23T22:35:10.305Z,26.50
2018-08-23T22:37:37.810Z,26.40
2018-08-23T22:40:05.253Z,26.44
2018-08-23T22:42:32.760Z,26.49
2018-08-23T22:45:00.153Z,26.50
2018-08-23T22:47:27.714Z,26.42
2018-08-23T22:49:55.300Z,26.37
2018-08-23T22:52:22.705Z,26.34
2018-08-23T22:54:50.423Z,26.34
2018-08-23T22:57:17.925Z,26.31
2018-08-23T22:59:45.384Z,26.19
2018-08-23T23:02:12.815Z,26.19
2018-08-23T23:04:40.230Z,26.13
2018-08-23T23:07:07.681Z,26.02
2018-08-23T23:09:35.111Z,25.93
2018-08-23T23:12:02.541Z,25.97
2018-08-23T23:14:29.927Z,25.84
2018-08-23T23:16:57.357Z,25.78
2018-08-23T23:19:25.056Z,25.76
2018-08-23T23:21:52.619Z,25.80
2018-08-23T23:24:20.221Z,25.80
2018-08-23T23:26:47.662Z,25.79
2018-08-23T23:29:15.116Z,25.76
2018-08-23T23:31:42.675Z,25.73
2018-08-23T23:34:10.077Z,25.73
2018-08-23T23:36:37.547Z,25.67
2018-08-23T23:39:04.990Z,25.71
2018-08-23T23:41:32.367Z,25.67
2018-08-23T23:43:59.805Z,25.63
2018-08-23T23:46:27.208Z,25.55
2018-08-23T23:48:54.879Z,25.53
2018-08-23T23:51:22.371Z,25.50
2018-08-23T23:53:49.828Z,25.45
2018-08-23T23:56:17.465Z,25.47
2018-08-23T23:58:44.903Z,25.43
